Time;durP1;ratioP1;P1;durP2;ratioP2;P2;SDS_P1;SDS_P2;PMS_P1;PMS_P2;Temp;Humidity;BMP_temperature;BMP_pressure;BME280_temperature;BME280_humidity;BME280_pressure;Samples;Min_cycle;Max_cycle;Signal;HPM_P1;HPM_P2
2022/03/24 00:01:54;;;;;;;0.75;0.75;;;9.80;54.80;;;;;;4990408;28;20042;-66
2022/03/24 00:04:20;;;;;;;0.10;0.10;;;9.70;55.20;;;;;;4990695;28;20395;-68
2022/03/24 00:06:45;;;;;;;7.53;6.90;;;9.70;55.30;;;;;;4991547;28;20042;-67
2022/03/24 00:09:11;;;;;;;0.75;0.75;;;9.70;55.50;;;;;;4991463;28;20064;-67
2022/03/24 00:11:38;;;;;;;1.30;1.23;;;9.70;55.40;;;;;;4985738;28;20550;-68
2022/03/24 00:14:04;;;;;;;0.10;0.10;;;9.70;55.70;;;;;;4990112;28;20555;-67
2022/03/24 00:16:30;;;;;;;0.13;0.13;;;9.70;55.50;;;;;;4991284;28;20084;-66
2022/03/24 00:18:56;;;;;;;0.82;0.82;;;9.80;55.30;;;;;;4989449;28;20030;-67
2022/03/24 00:21:24;;;;;;;2.42;2.33;;;9.60;55.90;;;;;;4990994;28;20188;-66
2022/03/24 00:23:50;;;;;;;0.25;0.25;;;9.50;56.10;;;;;;4990283;28;20015;-67
2022/03/24 00:26:15;;;;;;;0.75;0.75;;;9.50;56.70;;;;;;4990934;28;20480;-67
2022/03/24 00:28:41;;;;;;;0.22;0.22;;;9.50;57.10;;;;;;4989820;28;20026;-66
2022/03/24 00:31:09;;;;;;;0.25;0.25;;;9.50;57.30;;;;;;4990898;28;20118;-67
2022/03/24 00:33:36;;;;;;;0.30;0.30;;;9.50;57.90;;;;;;4975777;28;20473;-66
2022/03/24 00:36:02;;;;;;;0.10;0.10;;;9.50;57.60;;;;;;4972461;28;20109;-67
2022/03/24 00:38:29;;;;;;;0.10;0.10;;;9.40;57.80;;;;;;4990903;28;20795;-68
2022/03/24 00:40:55;;;;;;;0.30;0.30;;;9.40;58.00;;;;;;4990529;28;20049;-66
2022/03/24 00:43:22;;;;;;;0.98;0.98;;;9.30;58.60;;;;;;4990528;28;20441;-67
2022/03/24 00:45:50;;;;;;;2.28;1.75;;;9.30;58.80;;;;;;4987041;28;20034;-67
2022/03/24 00:48:16;;;;;;;0.20;0.20;;;9.20;59.30;;;;;;4979740;28;20042;-67
2022/03/24 00:50:42;;;;;;;0.20;0.20;;;9.20;59.40;;;;;;4990608;28;20101;-67
2022/03/24 00:53:08;;;;;;;0.30;0.30;;;9.20;59.30;;;;;;4989321;28;20030;-67
2022/03/24 00:55:34;;;;;;;0.57;0.57;;;9.20;59.00;;;;;;4990291;28;20030;-67
2022/03/24 00:58:00;;;;;;;0.10;0.10;;;9.10;58.70;;;;;;5006036;22;20029;-66
2022/03/24 01:00:26;;;;;;;0.10;0.10;;;9.10;59.30;;;;;;4983991;28;20404;-66
2022/03/24 01:02:53;;;;;;;0.20;0.20;;;9.10;60.00;;;;;;4989749;28;20077;-65
2022/03/24 01:05:21;;;;;;;0.20;0.20;;;9.00;61.00;;;;;;4990122;28;20479;-65
2022/03/24 01:07:48;;;;;;;0.10;0.10;;;9.10;61.20;;;;;;4990088;28;20038;-66
2022/03/24 01:10:17;;;;;;;0.20;0.20;;;9.10;61.40;;;;;;4985944;28;20058;-65
2022/03/24 01:12:46;;;;;;;0.20;0.20;;;9.10;62.10;;;;;;4998188;28;20028;-65
2022/03/24 01:15:17;;;;;;;0.20;0.20;;;9.00;62.30;;;;;;5006843;28;20483;-65
2022/03/24 01:17:44;;;;;;;0.20;0.20;;;9.00;62.90;;;;;;4993732;28;20060;-65
2022/03/24 01:20:11;;;;;;;1.00;1.00;;;8.90;64.40;;;;;;4970847;28;20476;-64
2022/03/24 01:22:37;;;;;;;1.15;1.02;;;8.80;65.50;;;;;;4975589;28;20038;-65
2022/03/24 01:25:04;;;;;;;0.30;0.30;;;8.90;67.80;;;;;;4999871;28;20064;-64
2022/03/24 01:27:30;;;;;;;0.47;0.47;;;8.90;69.50;;;;;;4974046;28;20057;-66
2022/03/24 01:29:56;;;;;;;0.20;0.20;;;8.90;72.20;;;;;;5001857;28;20077;-65
2022/03/24 01:32:23;;;;;;;0.13;0.13;;;8.90;73.80;;;;;;5002725;28;20356;-65
2022/03/24 01:34:50;;;;;;;0.30;0.30;;;8.80;76.10;;;;;;4989599;28;20415;-64
2022/03/24 01:37:17;;;;;;;0.10;0.10;;;8.80;78.90;;;;;;4996720;28;20022;-65
2022/03/24 01:39:43;;;;;;;0.77;0.75;;;8.70;79.90;;;;;;4996350;28;20031;-64
2022/03/24 01:42:08;;;;;;;0.65;0.65;;;8.70;82.00;;;;;;4994663;28;20038;-66
2022/03/24 01:44:34;;;;;;;1.10;1.05;;;8.50;85.50;;;;;;4986599;28;20030;-65
2022/03/24 01:47:08;;;;;;;0.10;0.10;;;8.30;88.60;;;;;;4994207;28;20030;-65
2022/03/24 01:49:41;;;;;;;0.10;0.10;;;8.20;91.00;;;;;;5001556;28;20547;-65
2022/03/24 01:52:10;;;;;;;0.22;0.22;;;8.10;91.80;;;;;;4993939;28;21239;-65
2022/03/24 01:54:39;;;;;;;0.52;0.52;;;8.00;92.30;;;;;;4989422;28;20041;-65
2022/03/24 01:57:07;;;;;;;0.10;0.10;;;7.90;92.00;;;;;;5005650;28;20041;-65
2022/03/24 01:59:37;;;;;;;0.10;0.10;;;7.80;92.30;;;;;;4992862;28;20125;-65
2022/03/24 02:02:04;;;;;;;0.40;0.40;;;7.90;93.40;;;;;;4991081;28;20022;-65
2022/03/24 02:04:30;;;;;;;2.13;1.95;;;7.90;93.30;;;;;;5002606;28;20042;-65
2022/03/24 02:06:56;;;;;;;8.20;4.72;;;7.90;92.90;;;;;;4993414;28;20037;-65
2022/03/24 02:09:22;;;;;;;0.85;0.85;;;7.80;94.30;;;;;;4988996;28;20165;-65
2022/03/24 02:11:48;;;;;;;0.10;0.10;;;7.80;94.00;;;;;;4997487;28;20083;-65
2022/03/24 02:14:14;;;;;;;0.10;0.10;;;7.80;93.70;;;;;;4990540;28;20451;-65
2022/03/24 02:16:41;;;;;;;0.17;0.17;;;7.80;94.90;;;;;;4987317;28;20029;-64
2022/03/24 02:19:10;;;;;;;0.55;0.55;;;8.00;94.80;;;;;;4987699;28;20034;-65
2022/03/24 02:21:40;;;;;;;0.30;0.30;;;8.10;94.40;;;;;;4990100;28;20483;-66
2022/03/24 02:24:06;;;;;;;0.30;0.30;;;8.10;94.80;;;;;;4988278;28;20034;-65
2022/03/24 02:26:32;;;;;;;0.10;0.10;;;8.10;95.10;;;;;;5000975;28;20035;-64
2022/03/24 02:28:57;;;;;;;0.50;0.50;;;8.10;95.90;;;;;;5000099;28;20041;-65
2022/03/24 02:31:24;;;;;;;0.75;0.75;;;8.10;96.40;;;;;;4993657;28;20427;-65
2022/03/24 02:34:37;;;;;;;0.20;0.20;;;8.10;96.80;;;;;;4991186;28;20157;-65
2022/03/24 02:36:39;;;;;;;0.20;0.20;;;8.10;96.90;;;;;;4989813;28;20360;-65
2022/03/24 02:39:05;;;;;;;1.10;1.10;;;8.10;96.60;;;;;;4991883;28;20026;-65
2022/03/24 02:41:31;;;;;;;0.28;0.28;;;8.10;96.40;;;;;;4984511;28;20096;-65
2022/03/24 02:43:58;;;;;;;2.17;2.08;;;8.10;97.00;;;;;;4985567;28;20109;-65
2022/03/24 02:46:24;;;;;;;0.10;0.10;;;8.00;97.50;;;;;;4995633;28;20134;-65
2022/03/24 02:48:50;;;;;;;2.55;2.15;;;8.00;97.40;;;;;;4989876;28;20023;-65
2022/03/24 02:51:15;;;;;;;0.10;0.10;;;8.00;97.70;;;;;;5000948;28;20056;-65
2022/03/24 02:53:41;;;;;;;0.10;0.10;;;7.80;97.60;;;;;;4986477;28;20078;-65
2022/03/24 02:56:08;;;;;;;0.10;0.10;;;7.70;98.60;;;;;;5002811;28;20046;-65
2022/03/24 02:58:33;;;;;;;0.10;0.10;;;7.70;98.70;;;;;;5004900;28;20100;-65
2022/03/24 03:00:59;;;;;;;0.52;0.52;;;7.70;98.90;;;;;;4996480;28;20034;-65
2022/03/24 03:03:24;;;;;;;3.60;3.20;;;7.60;99.10;;;;;;4994182;28;20044;-66
2022/03/24 03:05:50;;;;;;;0.10;0.10;;;7.50;98.90;;;;;;4997441;28;20027;-65
2022/03/24 03:08:19;;;;;;;1.42;1.38;;;7.50;99.40;;;;;;4992899;28;20104;-65
2022/03/24 03:10:44;;;;;;;0.10;0.10;;;7.40;99.90;;;;;;4995173;28;20053;-65
2022/03/24 03:13:10;;;;;;;0.10;0.10;;;7.40;99.90;;;;;;4993351;28;20484;-65
2022/03/24 03:15:36;;;;;;;0.10;0.10;;;7.40;99.90;;;;;;4998408;28;20068;-65
2022/03/24 03:18:04;;;;;;;0.47;0.47;;;7.50;99.90;;;;;;4997545;28;20118;-65
2022/03/24 03:20:30;;;;;;;0.10;0.10;;;7.50;99.90;;;;;;5002741;28;20053;-65
2022/03/24 03:22:55;;;;;;;14.15;6.78;;;7.60;99.90;;;;;;4979326;28;20061;-65
2022/03/24 03:25:22;;;;;;;0.10;0.10;;;7.70;99.90;;;;;;4982370;28;20031;-65
2022/03/24 03:27:48;;;;;;;0.10;0.10;;;7.50;99.90;;;;;;4984289;28;20018;-65
2022/03/24 03:30:14;;;;;;;2.63;1.95;;;7.40;99.90;;;;;;4996880;28;20030;-66
2022/03/24 03:32:41;;;;;;;0.10;0.10;;;7.40;99.90;;;;;;4983893;28;20030;-65
2022/03/24 03:35:07;;;;;;;3.90;1.85;;;7.40;99.90;;;;;;4987863;28;20022;-65
2022/03/24 03:37:33;;;;;;;4.78;2.45;;;7.50;99.90;;;;;;4989633;28;20058;-66
2022/03/24 03:39:59;;;;;;;1.75;1.65;;;7.50;99.90;;;;;;4989575;28;20034;-66
2022/03/24 03:42:24;;;;;;;0.10;0.10;;;7.40;99.90;;;;;;4992884;28;20462;-65
2022/03/24 03:44:50;;;;;;;0.10;0.10;;;7.40;99.90;;;;;;4994377;28;20479;-65
2022/03/24 03:47:17;;;;;;;0.20;0.20;;;7.40;99.90;;;;;;4993884;28;20532;-65
2022/03/24 03:49:42;;;;;;;0.35;0.35;;;7.40;99.90;;;;;;4980035;28;20030;-66
2022/03/24 03:52:08;;;;;;;1.38;1.38;;;7.40;99.90;;;;;;4971235;28;20034;-65
2022/03/24 03:54:34;;;;;;;0.82;0.82;;;7.40;99.90;;;;;;4972293;28;20027;-66
2022/03/24 03:56:59;;;;;;;0.20;0.20;;;7.40;99.90;;;;;;4980866;28;20031;-65
2022/03/24 03:59:25;;;;;;;0.25;0.25;;;7.40;99.90;;;;;;4991606;28;20516;-66
2022/03/24 04:01:50;;;;;;;0.20;0.20;;;7.40;99.90;;;;;;4992318;28;20033;-66
2022/03/24 04:04:16;;;;;;;0.10;0.10;;;7.30;99.90;;;;;;4995183;28;20552;-67
2022/03/24 04:06:41;;;;;;;0.10;0.10;;;7.30;99.90;;;;;;4985075;28;20030;-64
2022/03/24 04:09:07;;;;;;;0.50;0.50;;;7.20;99.90;;;;;;4982029;28;20018;-65
2022/03/24 04:11:35;;;;;;;0.22;0.22;;;7.20;99.90;;;;;;4986559;28;20469;-65
2022/03/24 04:14:01;;;;;;;0.10;0.10;;;7.20;99.90;;;;;;4981685;28;20035;-65
2022/03/24 04:16:26;;;;;;;0.90;0.90;;;7.20;99.90;;;;;;4996634;28;20022;-65
2022/03/24 04:18:52;;;;;;;0.47;0.45;;;7.20;99.90;;;;;;4999125;28;20034;-65
2022/03/24 04:21:18;;;;;;;0.10;0.10;;;7.10;99.90;;;;;;4994450;28;20076;-65
2022/03/24 04:23:44;;;;;;;0.75;0.75;;;7.00;99.90;;;;;;4994797;28;20030;-65
2022/03/24 04:26:13;;;;;;;0.52;0.52;;;6.90;99.90;;;;;;4987507;28;20053;-66
2022/03/24 04:28:43;;;;;;;3.05;2.53;;;6.80;99.90;;;;;;4983035;28;20030;-65
2022/03/24 04:31:08;;;;;;;0.10;0.10;;;6.70;99.90;;;;;;4992202;28;20023;-65
2022/03/24 04:33:34;;;;;;;0.20;0.20;;;6.80;99.90;;;;;;4988440;28;20082;-64
2022/03/24 04:36:00;;;;;;;0.63;0.63;;;6.80;99.90;;;;;;4979479;28;20034;-64
2022/03/24 04:38:26;;;;;;;0.05;0.05;;;6.70;99.90;;;;;;4993694;28;20572;-65
2022/03/24 04:40:53;;;;;;;0.40;0.40;;;6.60;99.90;;;;;;5001177;28;20337;-65
2022/03/24 04:43:19;;;;;;;0.10;0.10;;;6.60;99.90;;;;;;4980929;28;20052;-65
2022/03/24 04:45:45;;;;;;;7.03;5.80;;;6.70;99.90;;;;;;4994082;28;20487;-65
2022/03/24 04:48:10;;;;;;;;;;;6.70;99.90;;;;;;4998807;28;20022;-66
2022/03/24 04:50:37;;;;;;;0.10;0.10;;;6.60;99.90;;;;;;5003331;28;19913;-65
2022/03/24 04:53:03;;;;;;;0.10;0.10;;;6.60;99.90;;;;;;4995366;28;20109;-65
2022/03/24 04:55:29;;;;;;;1.77;1.63;;;6.60;99.90;;;;;;4990632;28;20452;-65
2022/03/24 04:57:54;;;;;;;0.10;0.10;;;6.70;99.90;;;;;;4985544;28;20486;-65
2022/03/24 05:00:20;;;;;;;1.63;1.50;;;6.70;99.90;;;;;;4996670;28;20760;-65
2022/03/24 05:02:48;;;;;;;0.10;0.10;;;6.70;99.90;;;;;;4995769;28;20041;-66
2022/03/24 05:05:15;;;;;;;3.03;2.83;;;6.60;99.90;;;;;;4984140;28;20496;-64
2022/03/24 05:07:41;;;;;;;1.83;1.73;;;6.60;99.90;;;;;;4996664;28;20042;-64
2022/03/24 05:10:08;;;;;;;1.20;1.20;;;6.60;99.90;;;;;;4990968;28;20034;-65
2022/03/24 05:12:34;;;;;;;0.43;0.43;;;6.50;99.90;;;;;;4990222;28;20022;-66
2022/03/24 05:14:59;;;;;;;0.10;0.10;;;6.50;99.90;;;;;;4993842;28;20349;-65
2022/03/24 05:17:25;;;;;;;0.15;0.15;;;6.50;99.90;;;;;;4989027;28;20034;-64
2022/03/24 05:19:52;;;;;;;0.65;0.65;;;6.50;99.90;;;;;;4992218;28;20034;-65
2022/03/24 05:22:18;;;;;;;0.10;0.10;;;6.40;99.90;;;;;;4985475;28;20062;-65
2022/03/24 05:24:44;;;;;;;0.10;0.10;;;6.40;99.90;;;;;;4988968;28;20487;-65
2022/03/24 05:27:10;;;;;;;0.10;0.10;;;6.50;99.90;;;;;;4983650;28;20035;-65
2022/03/24 05:29:36;;;;;;;0.30;0.30;;;6.40;99.90;;;;;;4981646;28;20034;-65
2022/03/24 05:32:02;;;;;;;0.10;0.10;;;6.40;99.90;;;;;;4997534;28;20041;-65
2022/03/24 05:34:27;;;;;;;0.82;0.82;;;6.40;99.90;;;;;;4991723;28;20014;-65
2022/03/24 05:36:53;;;;;;;0.20;0.20;;;6.40;99.90;;;;;;4986115;28;20427;-65
2022/03/24 05:39:18;;;;;;;0.10;0.10;;;6.50;99.90;;;;;;5001205;28;20026;-64
2022/03/24 05:41:44;;;;;;;1.77;1.67;;;6.40;99.90;;;;;;4982934;28;20092;-64
2022/03/24 05:44:10;;;;;;;1.67;1.45;;;6.50;99.90;;;;;;4989299;28;20026;-64
2022/03/24 05:46:39;;;;;;;0.20;0.20;;;6.50;99.90;;;;;;4980831;28;20053;-64
2022/03/24 05:49:06;;;;;;;0.35;0.35;;;6.50;99.90;;;;;;4983687;28;20425;-64
2022/03/24 05:51:32;;;;;;;0.20;0.20;;;6.50;99.90;;;;;;4991983;28;20030;-65
2022/03/24 05:53:58;;;;;;;0.20;0.20;;;6.60;99.90;;;;;;4994149;28;20072;-65
2022/03/24 05:56:24;;;;;;;0.10;0.10;;;6.50;99.90;;;;;;4983880;28;20105;-65
2022/03/24 05:58:50;;;;;;;0.38;0.38;;;6.30;99.90;;;;;;4993698;28;20133;-65
2022/03/24 06:01:17;;;;;;;0.40;0.40;;;6.30;99.90;;;;;;4992108;28;20534;-65
2022/03/24 06:03:45;;;;;;;0.10;0.10;;;6.30;99.90;;;;;;4995412;28;20027;-65
2022/03/24 06:06:12;;;;;;;0.20;0.20;;;6.40;99.90;;;;;;4995498;28;20104;-65
2022/03/24 06:08:42;;;;;;;0.28;0.28;;;6.50;99.90;;;;;;4990613;28;20502;-65
2022/03/24 06:11:16;;;;;;;0.25;0.25;;;6.40;99.90;;;;;;4988085;28;20049;-64
2022/03/24 06:13:42;;;;;;;;;;;6.50;99.90;;;;;;4994282;28;20134;-65
2022/03/24 06:16:08;;;;;;;6.13;5.68;;;6.60;99.90;;;;;;4985812;28;19910;-65
2022/03/24 06:18:36;;;;;;;2.05;1.90;;;6.60;99.90;;;;;;4994535;28;20061;-64
2022/03/24 06:21:04;;;;;;;0.25;0.25;;;6.50;99.90;;;;;;5000878;28;20029;-65
2022/03/24 06:23:29;;;;;;;0.10;0.10;;;6.50;99.90;;;;;;4991282;28;20110;-66
2022/03/24 06:25:55;;;;;;;0.10;0.10;;;6.60;99.90;;;;;;4987297;28;20475;-66
2022/03/24 06:28:21;;;;;;;0.10;0.10;;;6.70;99.90;;;;;;4984368;28;20088;-66
2022/03/24 06:30:47;;;;;;;0.28;0.28;;;6.70;99.90;;;;;;4988040;28;20031;-66
2022/03/24 06:33:16;;;;;;;0.10;0.10;;;6.80;99.90;;;;;;4985752;28;20480;-68
2022/03/24 06:35:43;;;;;;;1.75;1.65;;;6.50;99.90;;;;;;4988110;28;20030;-68
2022/03/24 06:38:08;;;;;;;0.25;0.25;;;6.40;99.90;;;;;;4995270;28;20034;-66
2022/03/24 06:40:34;;;;;;;0.10;0.10;;;6.40;99.90;;;;;;4987566;28;20030;-66
2022/03/24 06:43:00;;;;;;;3.30;2.08;;;6.40;99.90;;;;;;4988119;28;20372;-66
2022/03/24 06:45:25;;;;;;;0.10;0.10;;;6.30;99.90;;;;;;4991943;28;20038;-65
2022/03/24 06:47:51;;;;;;;0.10;0.10;;;6.40;99.90;;;;;;4993766;28;20034;-65
2022/03/24 06:50:17;;;;;;;4.75;1.35;;;6.50;99.90;;;;;;4977860;28;20221;-65
2022/03/24 06:52:43;;;;;;;0.15;0.15;;;6.80;99.90;;;;;;4988889;28;20130;-68
2022/03/24 06:55:10;;;;;;;1.25;1.25;;;7.00;99.90;;;;;;4985364;28;20495;-66
2022/03/24 06:57:37;;;;;;;0.43;0.43;;;7.10;99.90;;;;;;4983356;28;20148;-66
2022/03/24 07:00:07;;;;;;;0.10;0.10;;;7.20;99.90;;;;;;5029089;22;20088;-68
2022/03/24 07:02:33;;;;;;;0.30;0.30;;;7.30;99.90;;;;;;5028618;28;20037;-70
2022/03/24 07:04:58;;;;;;;0.10;0.10;;;7.40;99.90;;;;;;5025802;28;20025;-67
2022/03/24 07:07:27;;;;;;;0.43;0.43;;;7.50;99.90;;;;;;5024330;28;20029;-66
2022/03/24 07:12:53;;;;;;;1.83;1.75;;;7.60;99.90;;;;;;5993723;22;20053;-65
2022/03/24 07:15:19;;;;;;;0.13;0.13;;;7.70;99.90;;;;;;5018932;28;20033;-65
2022/03/24 07:17:44;;;;;;;0.70;0.70;;;7.70;99.90;;;;;;5030810;28;20379;-67
2022/03/24 07:20:10;;;;;;;0.10;0.10;;;7.80;99.90;;;;;;5024396;28;20022;-66
2022/03/24 07:22:37;;;;;;;0.10;0.10;;;7.70;99.90;;;;;;5028006;28;20057;-67
2022/03/24 07:25:07;;;;;;;0.73;0.73;;;7.80;99.90;;;;;;5031516;28;20033;-68
2022/03/24 07:27:34;;;;;;;0.40;0.40;;;7.80;99.90;;;;;;5037786;22;20128;-69
2022/03/24 07:30:00;;;;;;;5.03;4.68;;;7.90;99.90;;;;;;5021862;28;20017;-68
2022/03/24 07:32:25;;;;;;;0.10;0.10;;;7.90;99.90;;;;;;5022704;28;20025;-69
2022/03/24 07:34:52;;;;;;;0.20;0.20;;;7.90;99.90;;;;;;5021461;28;20037;-67
2022/03/24 07:37:17;;;;;;;0.10;0.10;;;8.10;99.90;;;;;;5021875;28;20053;-67
2022/03/24 07:39:43;;;;;;;0.25;0.25;;;8.00;99.90;;;;;;5020737;28;20060;-67
2022/03/24 07:42:08;;;;;;;0.13;0.13;;;8.00;99.90;;;;;;5025893;28;20390;-69
2022/03/24 07:44:34;;;;;;;0.10;0.10;;;8.10;99.90;;;;;;5021441;28;20022;-68
2022/03/24 07:47:00;;;;;;;1.55;1.45;;;8.20;99.90;;;;;;5026026;28;20462;-69
2022/03/24 07:49:26;;;;;;;0.40;0.40;;;8.30;99.90;;;;;;5024382;28;20029;-69
2022/03/24 07:51:52;;;;;;;0.10;0.10;;;8.50;99.90;;;;;;5021780;28;20163;-69
2022/03/24 07:54:44;;;;;;;0.35;0.35;;;8.60;99.90;;;;;;5022587;28;20379;-71
2022/03/24 07:57:10;;;;;;;0.45;0.45;;;8.50;99.90;;;;;;5018960;28;20024;-69
2022/03/24 07:59:36;;;;;;;0.10;0.10;;;8.50;99.90;;;;;;5021404;28;20496;-71
2022/03/24 08:02:01;;;;;;;1.17;1.13;;;8.60;99.90;;;;;;5021771;28;20037;-68
2022/03/24 08:04:27;;;;;;;0.10;0.10;;;8.80;99.90;;;;;;5021897;28;20398;-68
2022/03/24 08:06:53;;;;;;;1.23;1.20;;;8.90;99.60;;;;;;5019390;28;20388;-69
2022/03/24 08:09:19;;;;;;;0.10;0.10;;;8.80;99.60;;;;;;5022937;28;20024;-78
2022/03/24 08:11:45;;;;;;;0.32;0.32;;;9.00;99.90;;;;;;5026478;28;20104;-79
2022/03/24 08:14:11;;;;;;;0.32;0.32;;;9.10;99.30;;;;;;5023110;28;20090;-81
2022/03/24 08:16:37;;;;;;;0.10;0.10;;;9.10;98.70;;;;;;5032509;28;20025;-81
2022/03/24 08:19:03;;;;;;;2.70;2.58;;;9.10;98.50;;;;;;5025529;28;20040;-82
2022/03/24 08:21:29;;;;;;;0.10;0.10;;;9.30;98.30;;;;;;5028260;28;20422;-83
2022/03/24 08:23:54;;;;;;;5.53;4.38;;;9.20;98.50;;;;;;5022634;28;20022;-82
2022/03/24 08:26:20;;;;;;;0.43;0.43;;;9.30;98.20;;;;;;5024373;28;20102;-83
2022/03/24 08:28:46;;;;;;;4.43;1.85;;;9.50;98.20;;;;;;5031105;28;20025;-82
2022/03/24 08:31:11;;;;;;;0.55;0.55;;;9.60;97.90;;;;;;5027702;28;20151;-83
2022/03/24 08:33:37;;;;;;;1.75;1.35;;;9.80;97.50;;;;;;5028417;28;20033;-82
2022/03/24 08:36:03;;;;;;;0.10;0.10;;;9.70;97.10;;;;;;5021989;28;20038;-82
2022/03/24 08:38:28;;;;;;;0.10;0.10;;;9.80;97.20;;;;;;5026747;28;20038;-81
2022/03/24 08:40:54;;;;;;;1.25;1.25;;;9.90;95.80;;;;;;5034837;28;20503;-83
2022/03/24 08:43:20;;;;;;;0.88;0.85;;;10.00;95.50;;;;;;5029178;28;20064;-79
2022/03/24 08:45:45;;;;;;;0.20;0.20;;;10.00;95.10;;;;;;5024133;28;20505;-82
2022/03/24 08:48:11;;;;;;;1.50;1.50;;;10.20;94.40;;;;;;5031428;28;20084;-84
2022/03/24 08:50:37;;;;;;;0.10;0.10;;;10.20;94.30;;;;;;5029422;28;20024;-82
2022/03/24 08:53:04;;;;;;;0.43;0.43;;;10.30;92.90;;;;;;5022397;28;20037;-84
2022/03/24 08:55:31;;;;;;;0.10;0.10;;;10.30;92.30;;;;;;5031330;28;20021;-84
2022/03/24 08:57:57;;;;;;;1.52;1.42;;;10.40;92.00;;;;;;5025387;28;20052;-83
2022/03/24 09:00:23;;;;;;;1.70;1.60;;;10.50;92.30;;;;;;5027487;28;20036;-81
2022/03/24 09:02:50;;;;;;;0.47;0.47;;;10.60;91.90;;;;;;5036431;28;20030;-82
2022/03/24 09:05:18;;;;;;;0.30;0.30;;;10.80;91.50;;;;;;5037276;28;20037;-84
2022/03/24 09:07:44;;;;;;;0.10;0.10;;;10.90;90.80;;;;;;5036371;28;20033;-84
2022/03/24 09:10:12;;;;;;;1.08;1.08;;;11.00;90.10;;;;;;5031596;28;20088;-85
2022/03/24 09:12:40;;;;;;;0.30;0.30;;;11.10;89.90;;;;;;5042747;28;20037;-84
2022/03/24 09:15:08;;;;;;;0.65;0.65;;;11.20;87.20;;;;;;5045880;28;20029;-84
2022/03/24 09:17:38;;;;;;;0.80;0.75;;;11.30;84.60;;;;;;5036647;28;20057;-84
2022/03/24 09:20:09;;;;;;;1.20;1.20;;;11.40;80.20;;;;;;5036572;28;20072;-83
2022/03/24 09:22:39;;;;;;;3.30;3.10;;;11.40;82.20;;;;;;5027341;28;21721;-81
2022/03/24 09:25:06;;;;;;;2.08;1.98;;;11.70;83.40;;;;;;5033227;28;20080;-82
2022/03/24 09:27:32;;;;;;;0.10;0.10;;;11.70;82.60;;;;;;5031864;28;20029;-67
2022/03/24 09:29:58;;;;;;;0.00;0.00;;;11.80;79.40;;;;;;5026976;28;20087;-67
2022/03/24 09:32:24;;;;;;;2.20;2.10;;;12.30;75.40;;;;;;5027469;28;20095;-67
2022/03/24 09:34:49;;;;;;;0.10;0.10;;;12.60;74.50;;;;;;5024518;28;20035;-68
2022/03/24 09:37:18;;;;;;;0.10;0.10;;;13.00;72.30;;;;;;5009822;28;20160;-70
2022/03/24 09:39:45;;;;;;;1.33;1.30;;;13.00;68.50;;;;;;5017618;28;20030;-68
2022/03/24 09:42:11;;;;;;;0.22;0.22;;;13.30;68.10;;;;;;5024040;28;20025;-68
2022/03/24 09:44:37;;;;;;;0.38;0.38;;;13.40;67.30;;;;;;5019219;28;20025;-67
2022/03/24 09:47:03;;;;;;;0.68;0.68;;;13.50;65.30;;;;;;5022482;28;20041;-67
2022/03/24 09:49:30;;;;;;;0.10;0.10;;;13.70;64.90;;;;;;5025296;28;20044;-68
2022/03/24 09:51:56;;;;;;;0.32;0.32;;;13.80;64.00;;;;;;5023320;28;20017;-68
2022/03/24 09:54:22;;;;;;;3.90;3.65;;;13.90;61.90;;;;;;5030082;28;21116;-72
2022/03/24 09:56:47;;;;;;;0.28;0.28;;;14.10;60.60;;;;;;5026430;28;20084;-69
2022/03/24 09:59:13;;;;;;;4.05;3.03;;;14.10;58.40;;;;;;5027992;28;20032;-67
2022/03/24 10:01:40;;;;;;;0.40;0.40;;;14.20;57.50;;;;;;5030895;28;20117;-67
2022/03/24 10:04:11;;;;;;;0.32;0.32;;;14.30;55.80;;;;;;5021693;28;20040;-70
2022/03/24 10:06:39;;;;;;;0.50;0.50;;;14.30;53.40;;;;;;5022991;28;20034;-68
2022/03/24 10:09:05;;;;;;;0.10;0.10;;;14.50;52.50;;;;;;5027655;28;20078;-67
2022/03/24 10:11:31;;;;;;;0.10;0.10;;;14.60;50.40;;;;;;5021842;28;20080;-68
2022/03/24 10:13:59;;;;;;;0.10;0.10;;;14.60;50.50;;;;;;5025535;28;20051;-67
2022/03/24 10:16:34;;;;;;;0.10;0.10;;;14.80;48.50;;;;;;5029663;28;20026;-68
2022/03/24 10:19:02;;;;;;;6.22;4.13;;;14.80;50.80;;;;;;5025143;28;20075;-70
2022/03/24 10:21:29;;;;;;;0.03;0.03;;;14.80;49.80;;;;;;5025811;28;20026;-68
2022/03/24 10:24:00;;;;;;;0.10;0.10;;;15.10;49.60;;;;;;5026330;28;20041;-68
2022/03/24 10:26:49;;;;;;;0.17;0.17;;;15.30;47.60;;;;;;5030935;28;20098;-67
2022/03/24 10:29:18;;;;;;;1.48;1.45;;;15.40;45.60;;;;;;5022006;28;20037;-71
2022/03/24 10:31:44;;;;;;;0.10;0.10;;;15.50;45.40;;;;;;5030975;28;20033;-70
2022/03/24 10:34:11;;;;;;;0.10;0.10;;;15.50;45.10;;;;;;5027964;28;20103;-67
2022/03/24 10:36:39;;;;;;;0.20;0.20;;;15.60;43.90;;;;;;5027790;28;20026;-67
2022/03/24 10:39:05;;;;;;;0.10;0.10;;;15.60;43.60;;;;;;5018400;28;20052;-69
2022/03/24 10:41:34;;;;;;;1.00;1.00;;;15.60;44.30;;;;;;5022594;28;20041;-67
2022/03/24 10:44:09;;;;;;;0.10;0.10;;;15.80;44.70;;;;;;5022817;28;20022;-67
2022/03/24 10:46:37;;;;;;;4.03;3.70;;;16.10;45.30;;;;;;5016323;28;20586;-71
2022/03/24 10:49:24;;;;;;;0.25;0.25;;;16.20;44.30;;;;;;5018916;28;20017;-67
2022/03/24 10:51:51;;;;;;;0.28;0.28;;;16.20;44.30;;;;;;5016532;28;20026;-67
2022/03/24 10:54:47;;;;;;;0.10;0.10;;;16.30;44.70;;;;;;5016953;28;20055;-70
2022/03/24 10:57:15;;;;;;;0.98;0.98;;;16.40;44.00;;;;;;5017174;28;20030;-70
2022/03/24 10:59:58;;;;;;;0.10;0.10;;;16.50;43.30;;;;;;5021391;28;20057;-67
2022/03/24 11:02:25;;;;;;;3.33;3.10;;;16.60;43.50;;;;;;5019651;28;20021;-68
2022/03/24 11:04:51;;;;;;;0.10;0.10;;;16.70;43.00;;;;;;5018617;28;20473;-67
2022/03/24 11:07:27;;;;;;;1.00;1.00;;;16.70;43.50;;;;;;5020093;28;20105;-67
2022/03/24 11:09:54;;;;;;;0.10;0.10;;;16.70;43.20;;;;;;5021405;28;20046;-68
2022/03/24 11:12:36;;;;;;;0.25;0.25;;;16.80;43.30;;;;;;5022112;28;20026;-69
2022/03/24 11:15:05;;;;;;;3.75;3.05;;;17.00;43.70;;;;;;5019361;28;20032;-69
2022/03/24 11:17:33;;;;;;;0.10;0.10;;;17.00;42.80;;;;;;5024580;28;20034;-69
2022/03/24 11:20:04;;;;;;;0.73;0.73;;;16.90;42.30;;;;;;5020649;28;20033;-68
2022/03/24 11:22:54;;;;;;;1.27;0.85;;;17.10;42.60;;;;;;5022557;28;20114;-71
2022/03/24 11:25:22;;;;;;;0.10;0.10;;;17.20;42.70;;;;;;5018470;28;20101;-69
2022/03/24 11:27:50;;;;;;;0.40;0.40;;;17.10;43.50;;;;;;5015006;28;20466;-68
2022/03/24 11:30:18;;;;;;;10.13;7.28;;;17.20;42.80;;;;;;5016534;28;20033;-69
2022/03/24 11:32:46;;;;;;;5.10;4.70;;;17.40;43.30;;;;;;5015406;28;20025;-69
2022/03/24 11:35:13;;;;;;;0.28;0.28;;;17.40;42.80;;;;;;5015290;28;20049;-68
2022/03/24 11:37:40;;;;;;;0.60;0.60;;;17.60;41.90;;;;;;5018109;28;20061;-67
2022/03/24 11:40:25;;;;;;;0.10;0.10;;;17.60;40.50;;;;;;5024233;28;20498;-66
2022/03/24 11:42:51;;;;;;;0.50;0.50;;;17.60;40.70;;;;;;5015680;28;20459;-69
2022/03/24 11:45:27;;;;;;;0.10;0.10;;;17.70;40.30;;;;;;5015495;28;20030;-69
2022/03/24 11:48:01;;;;;;;0.73;0.73;;;17.80;40.20;;;;;;5020213;28;20274;-66
2022/03/24 11:50:55;;;;;;;0.28;0.28;;;17.90;38.10;;;;;;5018215;28;20033;-71
2022/03/24 11:53:27;;;;;;;2.60;2.40;;;18.00;37.90;;;;;;5019294;28;20033;-65
2022/03/24 11:55:59;;;;;;;0.10;0.10;;;18.00;36.00;;;;;;5023749;28;20088;-68
2022/03/24 11:58:27;;;;;;;0.10;0.10;;;18.00;37.10;;;;;;5016825;28;20125;-67
2022/03/24 12:00:53;;;;;;;0.10;0.10;;;18.20;36.30;;;;;;5019588;28;20026;-70
2022/03/24 12:03:41;;;;;;;0.10;0.10;;;18.00;35.90;;;;;;5019026;28;20029;-71
2022/03/24 12:06:08;;;;;;;2.38;2.20;;;18.00;35.10;;;;;;5019672;28;20025;-72
2022/03/24 12:09:03;;;;;;;0.75;0.75;;;18.10;36.00;;;;;;5023428;28;20033;-69
2022/03/24 12:11:31;;;;;;;0.65;0.65;;;18.20;35.60;;;;;;5023007;28;20018;-69
2022/03/24 12:13:58;;;;;;;0.10;0.10;;;18.20;35.60;;;;;;5024596;28;20037;-67
2022/03/24 12:16:28;;;;;;;0.10;0.10;;;18.20;34.90;;;;;;5019986;28;20032;-69
2022/03/24 12:18:55;;;;;;;1.85;1.75;;;18.10;35.20;;;;;;5018623;28;20038;-69
2022/03/24 12:21:30;;;;;;;0.10;0.10;;;18.10;36.40;;;;;;5023797;28;20025;-68
2022/03/24 12:24:19;;;;;;;0.10;0.10;;;18.10;37.20;;;;;;5022867;28;20034;-72
2022/03/24 12:26:56;;;;;;;0.30;0.30;;;18.20;36.60;;;;;;5017861;28;20068;-68
2022/03/24 12:29:23;;;;;;;0.10;0.10;;;18.20;36.40;;;;;;5016240;28;20029;-69
2022/03/24 12:32:22;;;;;;;0.20;0.20;;;18.20;36.00;;;;;;5019544;28;20044;-69
2022/03/24 12:34:48;;;;;;;0.00;0.00;;;18.30;35.70;;;;;;5015301;28;20403;-70
2022/03/24 12:37:23;;;;;;;0.55;0.55;;;18.30;36.20;;;;;;5018933;28;20025;-68
2022/03/24 12:40:09;;;;;;;0.10;0.10;;;18.20;35.40;;;;;;5015367;28;20026;-69
2022/03/24 12:42:51;;;;;;;0.25;0.25;;;18.30;35.90;;;;;;5019474;28;20041;-67
2022/03/24 12:45:25;;;;;;;0.10;0.10;;;18.20;35.20;;;;;;5021048;28;20029;-69
2022/03/24 12:47:52;;;;;;;0.30;0.30;;;18.20;35.80;;;;;;5021858;28;20033;-68
2022/03/24 12:50:17;;;;;;;0.10;0.10;;;18.40;35.00;;;;;;5018589;28;20026;-71
2022/03/24 12:52:55;;;;;;;1.88;1.80;;;18.60;34.90;;;;;;5022067;28;20032;-69
2022/03/24 12:55:32;;;;;;;0.10;0.10;;;19.00;34.50;;;;;;5022060;28;20041;-71
2022/03/24 12:58:18;;;;;;;0.10;0.10;;;19.50;34.40;;;;;;5021964;28;20375;-69
2022/03/24 13:00:48;;;;;;;0.28;0.28;;;20.90;33.20;;;;;;5012256;28;20160;-70
2022/03/24 13:03:15;;;;;;;0.10;0.10;;;21.90;32.30;;;;;;5015159;28;20029;-68